Time;durP1;ratioP1;P1;durP2;ratioP2;P2;SDS_P1;SDS_P2;PMS_P1;PMS_P2;Temp;Humidity;BMP_temperature;BMP_pressure;BME280_temperature;BME280_humidity;BME280_pressure;Samples;Min_cycle;Max_cycle;Signal;HPM_P1;HPM_P2
2022/10/25 00:00:28;;;;;;;1.10;1.00;;;17.90;60.40;;;;;;4967945;29;20051;-67
2022/10/25 00:02:54;;;;;;;1.65;1.38;;;17.90;60.40;;;;;;4966463;28;20098;-68
2022/10/25 00:05:20;;;;;;;2.33;1.60;;;17.90;60.40;;;;;;4967834;29;20015;-68
2022/10/25 00:07:45;;;;;;;2.38;1.35;;;17.90;60.40;;;;;;4967786;29;20027;-67
2022/10/25 00:10:12;;;;;;;1.33;1.23;;;17.90;60.50;;;;;;4967764;29;20043;-67
2022/10/25 00:12:43;;;;;;;1.67;1.58;;;17.90;60.50;;;;;;4967705;29;20065;-67
2022/10/25 00:15:11;;;;;;;1.95;1.75;;;17.90;61.10;;;;;;4967636;29;20026;-67
2022/10/25 00:17:37;;;;;;;1.25;1.10;;;17.90;60.50;;;;;;4967635;28;20023;-68
2022/10/25 00:20:03;;;;;;;2.03;1.73;;;17.90;60.60;;;;;;4967537;29;20087;-67
2022/10/25 00:22:29;;;;;;;1.65;1.30;;;17.90;60.50;;;;;;4967547;29;20023;-67
2022/10/25 00:24:55;;;;;;;1.02;0.98;;;17.90;60.50;;;;;;4967421;29;20042;-67
2022/10/25 00:27:20;;;;;;;1.70;1.20;;;17.90;60.40;;;;;;4967436;29;20214;-68
2022/10/25 00:29:46;;;;;;;1.77;1.40;;;17.90;60.40;;;;;;4967428;29;20026;-69
2022/10/25 00:32:12;;;;;;;1.65;1.50;;;17.90;60.40;;;;;;4967385;29;20197;-69
2022/10/25 00:34:40;;;;;;;1.88;1.50;;;17.90;60.50;;;;;;4967380;28;20046;-69
2022/10/25 00:37:06;;;;;;;1.52;1.38;;;17.90;60.50;;;;;;4967340;29;20027;-69
2022/10/25 00:39:32;;;;;;;1.42;1.23;;;17.90;60.50;;;;;;4967240;29;20078;-69
2022/10/25 00:41:57;;;;;;;1.63;1.52;;;17.90;60.40;;;;;;4967061;29;20347;-68
2022/10/25 00:44:35;;;;;;;1.10;1.00;;;17.90;60.40;;;;;;4967082;29;20200;-69
2022/10/25 00:47:26;;;;;;;1.52;1.42;;;17.90;60.40;;;;;;4967133;28;20028;-68
2022/10/25 00:50:13;;;;;;;1.80;1.40;;;17.90;60.40;;;;;;4967071;29;20051;-69
2022/10/25 00:52:42;;;;;;;1.55;1.45;;;17.90;60.50;;;;;;4967022;29;20024;-68
2022/10/25 00:55:10;;;;;;;1.73;1.38;;;17.90;60.40;;;;;;4966942;29;20011;-67
2022/10/25 00:57:55;;;;;;;1.47;1.20;;;17.90;60.50;;;;;;4965784;29;20019;-67
2022/10/25 01:00:21;;;;;;;1.50;1.40;;;17.90;60.40;;;;;;4966906;29;20038;-68
2022/10/25 01:02:47;;;;;;;1.50;1.38;;;17.80;60.40;;;;;;4966727;29;20218;-67
2022/10/25 01:05:15;;;;;;;1.80;1.45;;;17.90;60.40;;;;;;4966731;29;20019;-67
2022/10/25 01:07:41;;;;;;;1.70;1.60;;;17.90;60.50;;;;;;4966712;29;20219;-68
2022/10/25 01:10:07;;;;;;;1.63;1.40;;;17.90;60.50;;;;;;4966676;29;20260;-67
2022/10/25 01:12:33;;;;;;;1.85;1.75;;;17.90;60.40;;;;;;4966364;28;20015;-67
2022/10/25 01:14:59;;;;;;;1.45;1.35;;;17.90;60.50;;;;;;4966451;29;20019;-67
2022/10/25 01:17:43;;;;;;;1.38;1.27;;;17.90;60.40;;;;;;4966511;29;20307;-67
2022/10/25 01:20:35;;;;;;;1.20;1.13;;;17.90;60.40;;;;;;4966522;29;20027;-67
2022/10/25 01:23:10;;;;;;;1.52;1.23;;;17.90;60.40;;;;;;4966359;29;20019;-68
2022/10/25 01:25:56;;;;;;;1.67;1.45;;;17.90;60.40;;;;;;4966434;29;20041;-68
2022/10/25 01:28:37;;;;;;;1.33;1.23;;;17.90;60.40;;;;;;4966362;29;20019;-67
2022/10/25 01:31:14;;;;;;;1.33;1.10;;;17.90;60.40;;;;;;4966314;29;20272;-66
2022/10/25 01:33:54;;;;;;;1.67;1.40;;;17.90;60.40;;;;;;4966292;29;20023;-67
2022/10/25 01:36:28;;;;;;;1.83;1.40;;;17.90;60.50;;;;;;4966210;29;20053;-67
2022/10/25 01:39:13;;;;;;;1.58;1.42;;;17.90;60.50;;;;;;4966151;29;20027;-67
2022/10/25 01:41:51;;;;;;;1.48;1.30;;;17.90;60.40;;;;;;4965970;29;20368;-67
2022/10/25 01:44:29;;;;;;;1.13;1.03;;;17.80;60.40;;;;;;4966004;29;20046;-66
2022/10/25 01:47:03;;;;;;;1.92;1.73;;;17.80;60.40;;;;;;4966046;28;20248;-67
2022/10/25 01:49:35;;;;;;;1.50;1.40;;;17.80;60.40;;;;;;4965974;29;20041;-67
2022/10/25 01:52:02;;;;;;;1.40;1.30;;;17.80;60.50;;;;;;4965927;29;20047;-67
2022/10/25 01:54:28;;;;;;;3.67;1.55;;;17.90;60.50;;;;;;4965868;29;20027;-67
2022/10/25 01:57:22;;;;;;;1.83;1.42;;;17.90;60.50;;;;;;4965820;29;20045;-68
2022/10/25 02:00:08;;;;;;;1.50;1.25;;;17.80;60.40;;;;;;4965811;29;20019;-67
2022/10/25 02:02:59;;;;;;;1.50;1.40;;;17.80;60.40;;;;;;4964610;29;20102;-68
2022/10/25 02:05:34;;;;;;;4.53;1.60;;;17.80;60.40;;;;;;4965729;29;20031;-66
2022/10/25 02:08:27;;;;;;;1.90;1.30;;;17.80;60.40;;;;;;4965686;29;20027;-67
2022/10/25 02:11:15;;;;;;;2.28;1.15;;;17.80;60.40;;;;;;4967468;28;20204;-67
2022/10/25 02:13:58;;;;;;;1.65;1.42;;;17.80;60.40;;;;;;4965602;29;20367;-68
2022/10/25 02:16:27;;;;;;;1.75;1.40;;;17.90;60.40;;;;;;4965582;29;20327;-68
2022/10/25 02:18:59;;;;;;;1.67;1.40;;;17.80;60.40;;;;;;4965476;29;20066;-67
2022/10/25 02:21:27;;;;;;;1.70;1.60;;;17.80;60.40;;;;;;4965501;29;20192;-67
2022/10/25 02:23:55;;;;;;;3.65;1.30;;;17.80;60.40;;;;;;4965373;28;20026;-67
2022/10/25 02:26:21;;;;;;;1.50;1.40;;;17.80;60.40;;;;;;4964784;28;20015;-67
2022/10/25 02:28:48;;;;;;;1.70;1.20;;;17.80;60.40;;;;;;4965392;29;20020;-67
2022/10/25 02:31:19;;;;;;;1.70;1.38;;;17.80;60.40;;;;;;4964253;29;20026;-68
2022/10/25 02:33:46;;;;;;;2.03;1.50;;;17.80;60.40;;;;;;4965349;29;20066;-69
2022/10/25 02:36:20;;;;;;;1.40;1.30;;;17.80;60.40;;;;;;4965313;29;20019;-69
2022/10/25 02:38:47;;;;;;;1.23;1.15;;;17.80;60.50;;;;;;4965342;29;20023;-69
2022/10/25 02:41:13;;;;;;;1.90;1.75;;;17.80;60.40;;;;;;4965101;29;20043;-67
2022/10/25 02:43:39;;;;;;;1.10;1.00;;;17.80;60.50;;;;;;4965195;29;20027;-67
2022/10/25 02:46:07;;;;;;;1.33;1.23;;;17.80;60.40;;;;;;4965215;29;20318;-68
2022/10/25 02:48:36;;;;;;;1.20;1.10;;;17.80;60.50;;;;;;4965138;29;20047;-69
2022/10/25 02:51:02;;;;;;;1.70;1.60;;;17.80;60.40;;;;;;4964040;29;20095;-69
2022/10/25 02:53:28;;;;;;;1.50;1.40;;;17.80;60.50;;;;;;4965147;29;20362;-69
2022/10/25 02:56:01;;;;;;;1.95;1.75;;;17.80;60.50;;;;;;4965126;29;20023;-68
2022/10/25 02:58:33;;;;;;;1.73;1.13;;;17.80;60.60;;;;;;4965099;29;20026;-68
2022/10/25 03:00:59;;;;;;;1.75;1.65;;;17.80;60.50;;;;;;4965069;29;20333;-69
2022/10/25 03:03:26;;;;;;;1.63;1.40;;;17.80;60.50;;;;;;4964975;29;20023;-68
2022/10/25 03:05:52;;;;;;;1.88;1.35;;;17.80;60.40;;;;;;4965010;29;20020;-68
2022/10/25 03:08:19;;;;;;;7.55;1.48;;;17.80;60.40;;;;;;4965040;28;20030;-69
2022/10/25 03:10:44;;;;;;;1.73;1.63;;;17.80;60.50;;;;;;4964994;29;20311;-68
2022/10/25 03:13:10;;;;;;;1.50;1.40;;;17.80;60.50;;;;;;4964969;29;20090;-68
2022/10/25 03:15:36;;;;;;;1.95;1.75;;;17.80;60.50;;;;;;4964947;29;20070;-67
2022/10/25 03:18:02;;;;;;;1.85;1.73;;;17.80;60.50;;;;;;4964930;29;20059;-67
2022/10/25 03:20:28;;;;;;;1.52;1.40;;;17.80;60.50;;;;;;4964927;29;20078;-67
2022/10/25 03:22:53;;;;;;;1.20;1.08;;;17.80;60.50;;;;;;4964801;29;20366;-69
2022/10/25 03:25:19;;;;;;;1.42;1.20;;;17.80;60.40;;;;;;4964839;29;20030;-69
2022/10/25 03:27:45;;;;;;;1.20;1.10;;;17.80;60.50;;;;;;4964836;29;20074;-66
2022/10/25 03:30:14;;;;;;;1.60;1.48;;;17.80;60.50;;;;;;4964801;29;20019;-67
2022/10/25 03:32:40;;;;;;;1.55;1.38;;;17.80;60.50;;;;;;4964801;29;20086;-67
2022/10/25 03:35:06;;;;;;;1.40;1.20;;;17.80;60.60;;;;;;4963611;29;20019;-67
2022/10/25 03:37:32;;;;;;;1.58;1.27;;;17.80;60.60;;;;;;4967530;28;20027;-67
2022/10/25 03:39:58;;;;;;;2.00;1.60;;;17.80;60.50;;;;;;4968317;29;20307;-67
2022/10/25 03:42:24;;;;;;;1.63;1.52;;;17.80;60.50;;;;;;4968126;29;20059;-68
2022/10/25 03:44:50;;;;;;;1.67;1.58;;;17.80;60.50;;;;;;4968157;29;20066;-68
2022/10/25 03:47:16;;;;;;;1.58;1.30;;;17.80;60.60;;;;;;4968213;29;20023;-68
2022/10/25 03:49:42;;;;;;;1.30;1.20;;;17.80;60.50;;;;;;4968163;29;20335;-68
2022/10/25 03:52:08;;;;;;;1.20;1.10;;;17.80;60.50;;;;;;4968109;29;20038;-67
2022/10/25 03:54:34;;;;;;;1.40;1.30;;;17.80;60.50;;;;;;4968058;29;20026;-67
2022/10/25 03:57:02;;;;;;;1.38;1.23;;;17.80;60.50;;;;;;4968022;29;20319;-67
2022/10/25 03:59:27;;;;;;;1.58;1.35;;;17.80;60.50;;;;;;4968023;28;20019;-68
2022/10/25 04:01:53;;;;;;;1.60;1.50;;;17.80;60.50;;;;;;4967924;29;20027;-67
2022/10/25 04:04:19;;;;;;;1.52;1.30;;;17.80;60.50;;;;;;4967794;29;20078;-67
2022/10/25 04:06:45;;;;;;;1.30;1.20;;;17.80;60.50;;;;;;4967854;28;20024;-68
2022/10/25 04:09:11;;;;;;;1.88;1.52;;;17.80;60.50;;;;;;4967788;29;20011;-68
2022/10/25 04:11:37;;;;;;;1.52;1.33;;;17.80;60.50;;;;;;4967781;28;20320;-67
2022/10/25 04:14:03;;;;;;;1.30;1.20;;;17.80;60.50;;;;;;4967698;29;20086;-67
2022/10/25 04:16:28;;;;;;;1.30;1.13;;;17.80;60.50;;;;;;4967697;29;20023;-68
2022/10/25 04:18:54;;;;;;;1.90;1.70;;;17.80;60.50;;;;;;4967641;29;20035;-68
2022/10/25 04:21:20;;;;;;;1.38;1.27;;;17.80;60.50;;;;;;4967605;29;20043;-68
2022/10/25 04:23:46;;;;;;;1.30;1.20;;;17.80;60.50;;;;;;4967531;28;20019;-67
2022/10/25 04:26:17;;;;;;;1.58;1.38;;;17.80;60.50;;;;;;4967517;29;20023;-67
2022/10/25 04:28:44;;;;;;;1.73;1.42;;;17.80;60.50;;;;;;4967480;29;20026;-67
2022/10/25 04:31:10;;;;;;;1.13;1.02;;;17.80;60.50;;;;;;4967414;29;20039;-67
2022/10/25 04:33:35;;;;;;;1.20;1.10;;;17.80;60.50;;;;;;4967381;29;20318;-68
2022/10/25 04:36:01;;;;;;;1.38;1.27;;;17.80;60.60;;;;;;4967325;29;20027;-67
2022/10/25 04:38:27;;;;;;;1.33;1.20;;;17.80;60.60;;;;;;4967271;29;20023;-67
2022/10/25 04:40:57;;;;;;;1.30;1.20;;;17.80;60.60;;;;;;4967066;29;20023;-67
2022/10/25 04:43:25;;;;;;;1.90;1.30;;;17.80;60.60;;;;;;4967195;28;20023;-67
2022/10/25 04:45:52;;;;;;;1.60;1.50;;;17.80;60.60;;;;;;4967163;29;20252;-67
2022/10/25 04:48:18;;;;;;;1.33;1.23;;;17.80;60.60;;;;;;4966359;28;20027;-68
2022/10/25 04:50:44;;;;;;;1.33;1.15;;;17.80;60.60;;;;;;4967063;29;20240;-67
2022/10/25 04:53:10;;;;;;;1.13;1.08;;;17.80;60.60;;;;;;4967032;29;20057;-67
2022/10/25 04:55:36;;;;;;;1.20;1.10;;;17.80;60.50;;;;;;4966944;29;20070;-68
2022/10/25 04:58:02;;;;;;;1.50;1.33;;;17.80;60.60;;;;;;4966934;29;20027;-67
2022/10/25 05:00:28;;;;;;;1.58;1.00;;;17.80;60.60;;;;;;4966859;29;20027;-67
2022/10/25 05:02:54;;;;;;;1.60;1.50;;;17.80;60.50;;;;;;4966738;29;20086;-67
2022/10/25 05:05:22;;;;;;;1.95;1.52;;;17.80;60.50;;;;;;4966771;29;20115;-68
2022/10/25 05:07:48;;;;;;;1.40;1.30;;;17.80;60.50;;;;;;4965571;29;20023;-67
2022/10/25 05:10:14;;;;;;;1.70;1.50;;;17.80;60.50;;;;;;4966695;29;20015;-68
2022/10/25 05:12:40;;;;;;;1.83;1.40;;;17.80;60.50;;;;;;4966657;28;20023;-67
2022/10/25 05:15:06;;;;;;;1.20;1.10;;;17.80;60.50;;;;;;4966599;29;20091;-67
2022/10/25 05:17:33;;;;;;;1.52;1.20;;;17.80;60.60;;;;;;4966575;29;20027;-67
2022/10/25 05:19:58;;;;;;;2.08;1.70;;;17.80;60.50;;;;;;4966500;29;20023;-68
2022/10/25 05:22:25;;;;;;;2.40;1.60;;;17.80;60.50;;;;;;4966482;29;20323;-67
2022/10/25 05:24:51;;;;;;;1.27;1.17;;;17.80;60.60;;;;;;4966321;29;20327;-68
2022/10/25 05:27:17;;;;;;;1.52;1.42;;;17.80;60.60;;;;;;4966594;29;20046;-67
2022/10/25 05:29:43;;;;;;;5.28;1.63;;;17.80;60.60;;;;;;4966295;29;20011;-68
2022/10/25 05:32:09;;;;;;;11.45;5.88;;;17.80;60.60;;;;;;4966259;29;20047;-68
2022/10/25 05:34:35;;;;;;;15.85;7.55;;;17.80;64.30;;;;;;4966184;29;20027;-68
2022/10/25 05:37:00;;;;;;;19.35;7.43;;;17.70;65.40;;;;;;4966105;29;20066;-68
2022/10/25 05:39:26;;;;;;;9.30;4.75;;;17.70;65.00;;;;;;4966121;29;20031;-67
2022/10/25 05:41:52;;;;;;;15.57;10.38;;;17.70;63.90;;;;;;4965943;28;20046;-68
2022/10/25 05:44:18;;;;;;;18.80;13.30;;;17.60;69.10;;;;;;4965988;29;20050;-68
2022/10/25 05:46:44;;;;;;;25.35;14.88;;;17.50;71.60;;;;;;4965988;29;20069;-68
2022/10/25 05:49:10;;;;;;;37.90;12.98;;;17.30;72.00;;;;;;4965971;28;20074;-68
2022/10/25 05:51:36;;;;;;;31.75;10.55;;;17.30;70.70;;;;;;4965944;29;20026;-68
2022/10/25 05:54:13;;;;;;;21.08;12.38;;;17.50;67.90;;;;;;4965878;29;20361;-67
2022/10/25 05:56:40;;;;;;;26.40;12.93;;;17.50;70.80;;;;;;4965818;29;20042;-67
2022/10/25 05:59:13;;;;;;;27.40;12.80;;;17.50;70.80;;;;;;4965763;28;20051;-67
2022/10/25 06:01:41;;;;;;;26.27;11.75;;;17.50;71.10;;;;;;4965739;29;20023;-68
2022/10/25 06:04:08;;;;;;;1362.53;165.93;;;17.50;71.70;;;;;;4965661;28;20027;-68
2022/10/25 06:06:35;;;;;;;489.05;56.25;;;17.40;72.40;;;;;;4965618;29;20023;-67
2022/10/25 06:09:02;;;;;;;343.52;40.92;;;17.40;72.70;;;;;;4965576;29;20030;-68
2022/10/25 06:11:28;;;;;;;229.20;33.15;;;17.50;72.80;;;;;;4965648;28;20015;-68
2022/10/25 06:13:54;;;;;;;179.60;24.02;;;17.50;72.50;;;;;;4965590;28;20034;-67
2022/10/25 06:16:21;;;;;;;139.80;25.02;;;17.40;73.30;;;;;;4965568;28;20043;-67
2022/10/25 06:18:47;;;;;;;98.55;19.13;;;17.40;73.60;;;;;;4965525;28;20063;-68
2022/10/25 06:21:18;;;;;;;443.63;76.18;;;17.40;73.90;;;;;;4965507;28;20023;-67
2022/10/25 06:23:46;;;;;;;245.52;39.92;;;17.40;73.70;;;;;;4965373;29;20031;-68
2022/10/25 06:26:15;;;;;;;175.52;33.92;;;17.40;73.30;;;;;;4965424;29;20047;-69
2022/10/25 06:28:41;;;;;;;122.65;25.25;;;17.40;73.20;;;;;;4965377;29;20027;-67
2022/10/25 06:31:12;;;;;;;86.32;20.60;;;17.40;73.40;;;;;;4965339;29;20022;-68
2022/10/25 06:33:38;;;;;;;718.63;153.32;;;17.40;73.80;;;;;;4965338;29;20043;-68
2022/10/25 06:36:11;;;;;;;429.63;69.57;;;17.40;74.20;;;;;;4965312;28;20027;-67
2022/10/25 06:38:37;;;;;;;237.43;42.40;;;17.30;74.40;;;;;;4965303;28;20215;-68
2022/10/25 06:41:06;;;;;;;208.23;31.33;;;17.30;74.20;;;;;;4964919;29;20026;-67
2022/10/25 06:43:35;;;;;;;179.68;32.35;;;17.40;74.30;;;;;;4965143;29;20094;-68
2022/10/25 06:46:09;;;;;;;122.53;28.48;;;17.30;74.40;;;;;;4965186;28;20023;-68
2022/10/25 06:48:34;;;;;;;98.63;23.00;;;17.30;74.70;;;;;;4965195;29;20019;-66
2022/10/25 06:51:03;;;;;;;101.88;23.23;;;17.30;74.80;;;;;;4965142;29;20027;-69
2022/10/25 06:53:28;;;;;;;85.85;18.42;;;17.30;74.70;;;;;;4965113;29;20023;-69
2022/10/25 06:55:59;;;;;;;63.85;18.27;;;17.30;74.90;;;;;;4965125;28;20094;-68
2022/10/25 06:58:24;;;;;;;63.67;18.33;;;17.30;75.30;;;;;;4965136;28;20300;-67
2022/10/25 07:00:50;;;;;;;53.95;16.70;;;17.30;75.00;;;;;;4965051;29;20074;-68
2022/10/25 07:03:16;;;;;;;62.05;17.52;;;17.30;75.00;;;;;;4964957;29;20023;-68
2022/10/25 07:05:41;;;;;;;63.97;19.60;;;17.30;75.20;;;;;;4965017;29;20046;-68
2022/10/25 07:08:07;;;;;;;60.33;16.98;;;17.30;74.80;;;;;;4964958;29;20039;-67
2022/10/25 07:10:33;;;;;;;52.58;16.48;;;17.30;74.80;;;;;;4964964;28;20050;-68
2022/10/25 07:12:59;;;;;;;182.98;33.40;;;17.30;74.60;;;;;;4968629;29;20019;-69
2022/10/25 07:15:24;;;;;;;1999.90;541.38;;;17.30;74.80;;;;;;4983773;28;20058;-68
2022/10/25 07:17:53;;;;;;;835.20;150.32;;;17.30;75.40;;;;;;4968700;28;20235;-68
2022/10/25 07:20:18;;;;;;;1999.90;461.05;;;17.30;75.50;;;;;;4968664;29;20019;-68
2022/10/25 07:22:45;;;;;;;853.70;163.07;;;17.30;75.80;;;;;;4968585;29;20031;-68
2022/10/25 07:25:11;;;;;;;648.17;121.32;;;17.30;75.50;;;;;;4968500;28;20027;-69
2022/10/25 07:27:36;;;;;;;585.40;97.72;;;17.30;75.90;;;;;;4968535;29;20341;-68
2022/10/25 07:30:02;;;;;;;438.17;74.68;;;17.30;75.60;;;;;;4968473;29;20011;-67
2022/10/25 07:32:28;;;;;;;350.88;57.90;;;17.40;75.40;;;;;;4968412;29;20326;-68
2022/10/25 07:34:54;;;;;;;247.65;43.63;;;17.30;75.20;;;;;;4968410;28;20094;-68
2022/10/25 07:37:19;;;;;;;236.00;37.80;;;17.30;75.50;;;;;;4968344;29;20022;-68
2022/10/25 07:39:45;;;;;;;158.88;28.90;;;17.30;75.30;;;;;;4968288;28;20015;-68
2022/10/25 07:42:11;;;;;;;152.20;28.38;;;17.30;75.50;;;;;;4968132;28;20121;-68
2022/10/25 07:44:36;;;;;;;148.85;28.85;;;17.30;75.50;;;;;;4968164;28;20019;-68
2022/10/25 07:47:02;;;;;;;122.00;27.63;;;17.40;75.50;;;;;;4968063;28;20030;-68
2022/10/25 07:49:28;;;;;;;90.07;20.95;;;17.40;75.20;;;;;;4968120;29;20015;-69
2022/10/25 07:51:54;;;;;;;113.18;22.55;;;17.40;75.40;;;;;;4968137;29;20019;-69
2022/10/25 07:54:19;;;;;;;87.28;22.45;;;17.40;75.10;;;;;;4968062;29;20338;-69
2022/10/25 07:56:45;;;;;;;103.93;22.67;;;17.40;75.10;;;;;;4968015;28;20023;-69
2022/10/25 07:59:11;;;;;;;81.95;20.13;;;17.40;75.10;;;;;;4967984;29;20042;-69
2022/10/25 08:01:36;;;;;;;82.60;19.85;;;17.40;75.00;;;;;;4967994;28;20050;-67
2022/10/25 08:04:02;;;;;;;586.35;98.38;;;17.40;74.70;;;;;;4967843;29;20066;-69
2022/10/25 08:06:28;;;;;;;165.43;33.38;;;17.40;75.10;;;;;;4982821;28;20247;-67
2022/10/25 08:08:54;;;;;;;215.23;36.50;;;17.40;75.20;;;;;;4967827;28;20019;-68
2022/10/25 08:11:19;;;;;;;222.23;36.60;;;17.40;74.70;;;;;;4967809;28;20046;-68
2022/10/25 08:13:49;;;;;;;186.55;30.23;;;17.50;74.90;;;;;;4967720;29;20035;-68
2022/10/25 08:16:14;;;;;;;118.45;25.20;;;17.40;74.90;;;;;;4967714;28;20015;-68
2022/10/25 08:18:42;;;;;;;118.97;23.50;;;17.40;74.80;;;;;;4967650;28;20033;-74
2022/10/25 08:21:08;;;;;;;112.25;18.88;;;17.40;74.60;;;;;;4967655;28;20211;-72
2022/10/25 08:23:34;;;;;;;87.57;18.80;;;17.40;75.20;;;;;;4966336;28;20031;-68
2022/10/25 08:26:01;;;;;;;94.72;18.45;;;17.40;75.00;;;;;;4967484;28;20042;-69
2022/10/25 08:28:27;;;;;;;61.80;17.60;;;17.40;74.90;;;;;;4967433;29;20025;-68
2022/10/25 08:30:54;;;;;;;61.78;15.65;;;17.40;75.10;;;;;;4967432;28;20015;-68
2022/10/25 08:33:20;;;;;;;59.05;14.48;;;17.40;74.80;;;;;;4967383;28;20033;-68
2022/10/25 08:35:45;;;;;;;58.30;15.75;;;17.40;75.40;;;;;;4967358;28;20307;-68
2022/10/25 08:38:11;;;;;;;61.45;16.48;;;17.40;75.30;;;;;;4967256;29;20054;-68
2022/10/25 08:40:52;;;;;;;55.13;15.50;;;17.40;75.30;;;;;;4967021;29;20019;-68
2022/10/25 08:43:38;;;;;;;51.33;13.52;;;17.40;75.40;;;;;;4966755;28;20062;-68
2022/10/25 08:46:33;;;;;;;44.22;12.75;;;17.30;75.90;;;;;;4967203;28;20038;-68
2022/10/25 09:01:42;;;;;;;32.67;11.95;;;17.30;75.40;;;;;;5142094;27;20359;-69
2022/10/25 09:04:09;;;;;;;36.13;12.85;;;17.30;76.00;;;;;;5141861;28;20031;-70
2022/10/25 09:06:39;;;;;;;36.85;12.48;;;17.30;76.10;;;;;;5141695;28;20011;-70
2022/10/25 09:09:17;;;;;;;37.53;12.07;;;17.30;76.30;;;;;;5141586;28;20067;-69
2022/10/25 09:11:45;;;;;;;48.17;12.60;;;17.30;76.40;;;;;;5141631;28;20011;-69
2022/10/25 09:14:21;;;;;;;53.03;13.23;;;17.30;76.20;;;;;;5141677;28;20011;-69
2022/10/25 09:16:51;;;;;;;28.65;11.13;;;17.30;76.30;;;;;;5141628;28;20011;-70
2022/10/25 09:19:33;;;;;;;65.07;12.73;;;17.30;76.70;;;;;;5141555;28;20027;-70
2022/10/25 09:22:00;;;;;;;42.00;12.00;;;17.30;76.50;;;;;;5141470;28;20090;-70
2022/10/25 09:24:47;;;;;;;41.13;11.90;;;17.30;76.40;;;;;;5141431;28;20038;-70
2022/10/25 09:27:19;;;;;;;29.60;11.73;;;17.30;76.80;;;;;;5141462;28;20088;-70
2022/10/25 09:30:07;;;;;;;261.80;39.28;;;17.40;76.90;;;;;;5122993;28;20306;-70
2022/10/25 09:32:44;;;;;;;89.40;18.27;;;17.40;76.50;;;;;;5141273;28;20120;-70
2022/10/25 09:35:43;;;;;;;72.40;19.98;;;17.40;76.50;;;;;;5141261;28;20015;-69
2022/10/25 09:38:17;;;;;;;82.88;17.65;;;17.50;76.10;;;;;;5141171;28;20015;-70
2022/10/25 09:40:45;;;;;;;50.00;14.15;;;17.50;75.70;;;;;;5141152;28;20058;-70
2022/10/25 09:43:16;;;;;;;139.10;21.88;;;17.40;76.70;;;;;;5141056;28;20020;-70
2022/10/25 09:45:59;;;;;;;237.13;40.47;;;17.50;76.10;;;;;;5141045;28;20023;-70
2022/10/25 09:48:36;;;;;;;428.30;68.75;;;17.50;76.00;;;;;;5141049;28;20022;-71
2022/10/25 09:51:26;;;;;;;245.73;44.00;;;17.50;76.00;;;;;;5140845;28;20019;-69
2022/10/25 09:53:53;;;;;;;187.57;30.15;;;17.50;75.50;;;;;;5140889;28;20018;-69
2022/10/25 09:56:19;;;;;;;113.25;23.50;;;17.60;76.00;;;;;;5140862;28;20025;-69
2022/10/25 09:58:46;;;;;;;123.40;21.98;;;17.50;75.80;;;;;;5140854;28;20015;-71
2022/10/25 10:01:16;;;;;;;69.82;16.27;;;17.50;75.80;;;;;;5134565;28;20039;-72
2022/10/25 10:03:42;;;;;;;67.50;16.40;;;17.50;76.20;;;;;;5126938;28;20303;-70
2022/10/25 10:06:30;;;;;;;78.32;16.02;;;17.50;76.10;;;;;;5127079;28;20015;-70
2022/10/25 10:09:04;;;;;;;63.47;14.73;;;17.50;75.70;;;;;;5126930;28;20015;-70
2022/10/25 10:11:32;;;;;;;55.10;13.35;;;17.60;76.10;;;;;;5126909;28;20020;-69
2022/10/25 10:14:10;;;;;;;47.40;12.00;;;17.60;75.90;;;;;;5126741;28;20299;-69
2022/10/25 10:16:43;;;;;;;42.25;11.80;;;17.60;75.90;;;;;;5126775;28;20318;-69
2022/10/25 10:19:18;;;;;;;49.50;12.05;;;17.50;75.90;;;;;;5108561;28;20022;-69
2022/10/25 10:21:47;;;;;;;50.72;13.82;;;17.50;75.70;;;;;;5126660;28;20276;-70
2022/10/25 10:24:37;;;;;;;36.55;12.30;;;17.60;75.60;;;;;;5126596;28;20086;-70
2022/10/25 10:27:20;;;;;;;42.75;10.13;;;17.60;75.50;;;;;;5103875;28;20088;-70
2022/10/25 10:29:57;;;;;;;47.33;11.43;;;17.60;75.30;;;;;;5126483;28;20023;-69
2022/10/25 10:32:33;;;;;;;38.42;11.43;;;17.70;75.40;;;;;;5126485;28;20017;-68
2022/10/25 10:35:01;;;;;;;41.22;11.65;;;17.70;75.60;;;;;;5126433;28;20083;-69
2022/10/25 10:37:28;;;;;;;85.68;14.18;;;17.80;74.70;;;;;;5126137;28;20124;-69
2022/10/25 10:39:59;;;;;;;94.43;17.50;;;17.80;73.40;;;;;;5126050;28;20023;-70
2022/10/25 10:42:40;;;;;;;87.32;14.57;;;17.90;72.80;;;;;;5126186;28;20031;-69
2022/10/25 10:45:08;;;;;;;108.68;17.88;;;18.00;72.40;;;;;;5108029;28;20206;-69
2022/10/25 10:47:35;;;;;;;;;;;18.00;71.90;;;;;;5126626;28;20023;-69
2022/10/25 12:46:05;;;;;;;128.77;20.05;;;18.30;71.80;;;;;;5142078;27;20694;-68
2022/10/25 12:49:05;;;;;;;184.50;23.63;;;18.80;70.30;;;;;;5141868;28;20023;-68
2022/10/25 12:52:04;;;;;;;161.68;20.45;;;18.90;69.70;;;;;;5141799;28;20057;-68
2022/10/25 12:54:43;;;;;;;250.35;35.00;;;19.00;69.30;;;;;;5141698;28;20035;-69
2022/10/25 12:57:29;;;;;;;1023.30;151.82;;;19.20;68.90;;;;;;5141701;28;20019;-68
2022/10/25 13:00:10;;;;;;;604.08;86.28;;;19.40;69.10;;;;;;5141678;28;20038;-69
2022/10/25 13:03:25;;;;;;;573.33;87.72;;;19.50;67.90;;;;;;5141609;28;20097;-68
2022/10/25 13:06:13;;;;;;;511.65;70.40;;;19.70;67.20;;;;;;5096062;28;20028;-70
2022/10/25 13:08:40;;;;;;;473.02;68.72;;;19.60;67.50;;;;;;5122692;28;20068;-69
2022/10/25 13:11:07;;;;;;;472.75;68.97;;;19.30;68.30;;;;;;5141351;28;20015;-68
2022/10/25 13:13:40;;;;;;;518.92;75.03;;;19.10;69.20;;;;;;5141274;28;20079;-68
2022/10/25 13:16:09;;;;;;;456.38;65.57;;;18.90;69.40;;;;;;5141347;28;20022;-70
2022/10/25 13:18:42;;;;;;;497.90;69.88;;;18.90;69.80;;;;;;5141289;28;20184;-69
2022/10/25 13:21:16;;;;;;;438.60;67.18;;;18.80;69.80;;;;;;5141269;28;20299;-69
2022/10/25 13:23:41;;;;;;;475.05;64.68;;;18.80;69.80;;;;;;5122870;28;20016;-69
2022/10/25 13:26:18;;;;;;;438.85;64.38;;;18.90;69.30;;;;;;5141098;28;20023;-70
2022/10/25 13:28:50;;;;;;;426.95;63.30;;;18.90;69.40;;;;;;5141091;28;20086;-69
2022/10/25 13:31:33;;;;;;;378.90;51.80;;;18.90;69.20;;;;;;5141055;28;20027;-70
2022/10/25 13:34:11;;;;;;;348.00;49.47;;;18.90;69.00;;;;;;5140814;28;20086;-69
2022/10/25 13:36:54;;;;;;;371.42;52.25;;;19.00;69.10;;;;;;5140933;28;20073;-68
2022/10/25 13:39:31;;;;;;;344.08;50.55;;;19.60;67.40;;;;;;5140887;28;20026;-69
2022/10/25 13:42:15;;;;;;;324.02;48.05;;;19.90;66.30;;;;;;5140771;28;20038;-68
2022/10/25 13:45:03;;;;;;;276.60;42.17;;;20.20;65.30;;;;;;5138536;28;20045;-69
2022/10/25 13:47:35;;;;;;;298.17;43.35;;;20.30;64.80;;;;;;5108504;28;20095;-71
2022/10/25 13:50:12;;;;;;;432.90;58.25;;;20.50;64.70;;;;;;5126955;28;20299;-71
2022/10/25 13:52:47;;;;;;;617.63;85.70;;;20.40;64.70;;;;;;5126999;28;20047;-71
2022/10/25 13:55:15;;;;;;;519.47;78.03;;;20.50;64.30;;;;;;5126730;28;20086;-71
2022/10/25 13:57:45;;;;;;;515.55;67.35;;;20.60;64.20;;;;;;5126862;28;20015;-72
2022/10/25 14:00:31;;;;;;;487.58;69.70;;;20.60;63.80;;;;;;5126730;28;20022;-70
2022/10/25 14:03:24;;;;;;;463.30;63.75;;;20.70;63.60;;;;;;5126736;28;20088;-71
2022/10/25 14:05:53;;;;;;;494.55;69.72;;;20.60;63.70;;;;;;5125929;28;20099;-70
2022/10/25 14:08:43;;;;;;;441.13;63.90;;;20.70;63.50;;;;;;5126608;28;20205;-70
2022/10/25 14:11:32;;;;;;;410.35;60.65;;;20.80;63.10;;;;;;5126549;28;20242;-70
2022/10/25 14:14:09;;;;;;;429.20;57.45;;;20.80;63.10;;;;;;5126449;28;20026;-70
2022/10/25 14:16:45;;;;;;;426.83;60.63;;;20.70;64.00;;;;;;5126505;28;20015;-70
2022/10/25 14:19:22;;;;;;;392.08;57.17;;;20.80;63.30;;;;;;5126473;28;20023;-70
2022/10/25 14:21:51;;;;;;;391.50;57.40;;;20.60;63.60;;;;;;5126385;28;20019;-71
2022/10/25 14:24:18;;;;;;;399.27;59.63;;;20.30;64.70;;;;;;5126251;28;20019;-70
2022/10/25 14:26:56;;;;;;;423.58;64.72;;;20.20;65.10;;;;;;5126266;28;20336;-71
2022/10/25 14:29:23;;;;;;;379.00;57.60;;;20.00;65.40;;;;;;5126304;28;20030;-70
2022/10/25 14:31:49;;;;;;;376.60;52.50;;;19.90;65.70;;;;;;5126195;28;20297;-70
2022/10/25 14:34:18;;;;;;;353.42;53.67;;;19.70;66.40;;;;;;5126052;28;20034;-70
2022/10/25 14:36:51;;;;;;;382.08;55.53;;;19.60;66.90;;;;;;5126040;28;20022;-69
2022/10/25 14:39:23;;;;;;;376.90;53.72;;;19.70;66.80;;;;;;5126066;28;20020;-70
2022/10/25 14:41:58;;;;;;;363.88;52.80;;;19.60;66.80;;;;;;5107818;28;20022;-70
2022/10/25 14:44:45;;;;;;;383.88;52.50;;;19.60;67.00;;;;;;5125703;28;20047;-69
2022/10/25 14:47:32;;;;;;;323.90;55.07;;;19.60;67.00;;;;;;5125878;28;20051;-70
2022/10/25 14:49:58;;;;;;;323.02;48.20;;;19.60;67.10;;;;;;5125792;28;20222;-70
2022/10/25 14:52:26;;;;;;;333.27;49.03;;;19.50;67.20;;;;;;5125762;28;20048;-69
2022/10/25 14:55:03;;;;;;;312.90;49.35;;;19.50;67.30;;;;;;5125658;28;20357;-71
2022/10/25 14:57:30;;;;;;;331.60;50.03;;;19.50;67.30;;;;;;5124666;28;20023;-70
2022/10/25 15:00:04;;;;;;;305.85;45.65;;;19.50;67.30;;;;;;5125611;28;20046;-69